Time;durP1;ratioP1;P1;durP2;ratioP2;P2;SDS_P1;SDS_P2;PMS_P1;PMS_P2;Temp;Humidity;BMP_temperature;BMP_pressure;BME280_temperature;BME280_humidity;BME280_pressure;Samples;Min_cycle;Max_cycle;Signal;HPM_P1;HPM_P2
2021/04/27 00:00:14;;;;;;;58.33;4.55;;;6.00;1.00;;;;;;5071093;28;20256;-68
2021/04/27 00:02:41;;;;;;;57.80;4.10;;;6.00;1.00;;;;;;5070756;28;20291;-68
2021/04/27 00:05:09;;;;;;;58.55;4.30;;;6.00;1.00;;;;;;5071261;28;20725;-68
2021/04/27 00:07:37;;;;;;;58.42;4.25;;;6.00;1.00;;;;;;5070917;28;20304;-68
2021/04/27 00:10:05;;;;;;;58.55;4.05;;;6.00;1.00;;;;;;5071060;28;20256;-68
2021/04/27 00:12:32;;;;;;;58.10;4.25;;;5.90;1.00;;;;;;5070492;28;20737;-68
2021/04/27 00:14:58;;;;;;;57.00;3.92;;;5.90;1.00;;;;;;5070149;28;20697;-68
2021/04/27 00:17:24;;;;;;;59.83;4.90;;;5.90;1.00;;;;;;5090724;28;20231;-68
2021/04/27 00:19:51;;;;;;;60.00;5.55;;;5.80;1.00;;;;;;5090719;28;20310;-68
2021/04/27 00:22:17;;;;;;;60.35;5.85;;;5.70;1.00;;;;;;5090777;28;20204;-68
2021/04/27 00:24:45;;;;;;;59.67;5.90;;;5.50;1.00;;;;;;5091225;28;20371;-68
2021/04/27 00:27:11;;;;;;;59.95;4.65;;;5.40;1.00;;;;;;5090944;28;20294;-68
2021/04/27 00:29:37;;;;;;;58.72;4.63;;;5.40;1.00;;;;;;5092993;28;20615;-68
2021/04/27 00:32:04;;;;;;;60.30;4.32;;;5.30;1.00;;;;;;5094481;28;20215;-68
2021/04/27 00:34:30;;;;;;;66.10;4.43;;;5.20;1.00;;;;;;5094559;28;20226;-68
2021/04/27 00:36:57;;;;;;;58.65;4.63;;;5.20;1.00;;;;;;5094943;28;20206;-68
2021/04/27 00:39:23;;;;;;;58.47;4.50;;;5.10;1.00;;;;;;5094885;28;20310;-68
2021/04/27 00:41:50;;;;;;;59.40;4.55;;;5.10;1.00;;;;;;5094505;28;20244;-68
2021/04/27 00:44:17;;;;;;;58.67;4.50;;;5.00;1.00;;;;;;5094574;28;20239;-68
2021/04/27 00:46:43;;;;;;;58.05;4.03;;;5.00;1.00;;;;;;5091183;28;20352;-68
2021/04/27 00:49:09;;;;;;;61.90;4.65;;;5.00;1.00;;;;;;5088809;28;20236;-68
2021/04/27 00:51:36;;;;;;;59.33;3.85;;;4.90;1.00;;;;;;5074404;28;20303;-68
2021/04/27 00:54:04;;;;;;;57.95;4.20;;;4.90;1.00;;;;;;5074100;28;20678;-68
2021/04/27 00:56:31;;;;;;;58.60;4.80;;;4.80;1.00;;;;;;5073986;28;20677;-68
2021/04/27 00:58:58;;;;;;;58.50;4.47;;;4.80;1.00;;;;;;5074095;28;20745;-68
2021/04/27 01:01:25;;;;;;;60.35;4.65;;;4.80;1.00;;;;;;5073933;28;20312;-68
2021/04/27 01:03:51;;;;;;;59.58;4.50;;;4.70;1.00;;;;;;5073637;28;20209;-68
2021/04/27 01:06:18;;;;;;;57.45;4.00;;;4.70;1.00;;;;;;5073953;28;20292;-68
2021/04/27 01:08:49;;;;;;;61.00;4.15;;;4.70;1.00;;;;;;5074310;28;20205;-68
2021/04/27 01:11:25;;;;;;;59.55;6.80;;;4.60;1.00;;;;;;5073870;28;20864;-68
2021/04/27 01:13:58;;;;;;;57.80;4.63;;;4.60;1.00;;;;;;5073392;28;20201;-68
2021/04/27 01:16:26;;;;;;;59.13;4.90;;;4.50;1.00;;;;;;5073765;28;20724;-68
2021/04/27 01:18:54;;;;;;;59.20;4.13;;;4.50;1.00;;;;;;5070431;28;20201;-67
2021/04/27 01:21:24;;;;;;;57.28;3.85;;;4.40;1.00;;;;;;5090041;28;20220;-68
2021/04/27 01:24:04;;;;;;;58.50;4.63;;;4.40;1.00;;;;;;5093802;28;20748;-68
2021/04/27 01:26:35;;;;;;;57.85;4.45;;;4.30;1.00;;;;;;5093746;28;20204;-68
2021/04/27 01:29:03;;;;;;;59.20;4.30;;;4.20;1.00;;;;;;5093946;28;20304;-68
2021/04/27 01:31:30;;;;;;;58.80;4.70;;;4.20;1.00;;;;;;5093888;28;20243;-68
2021/04/27 01:33:57;;;;;;;58.45;5.20;;;4.10;1.00;;;;;;5093276;28;20208;-68
2021/04/27 01:36:23;;;;;;;58.00;4.40;;;4.10;1.00;;;;;;5093536;28;20239;-68
2021/04/27 01:38:50;;;;;;;58.03;4.30;;;4.10;1.00;;;;;;5093776;28;20591;-68
2021/04/27 01:41:17;;;;;;;57.83;4.35;;;4.00;1.00;;;;;;5093893;28;20319;-68
2021/04/27 01:43:45;;;;;;;60.10;5.32;;;4.00;1.00;;;;;;5093234;28;20254;-68
2021/04/27 01:46:13;;;;;;;58.67;4.60;;;4.00;1.00;;;;;;5093750;28;20589;-68
2021/04/27 01:48:40;;;;;;;63.92;4.53;;;4.00;1.00;;;;;;5090340;28;20208;-68
2021/04/27 01:51:09;;;;;;;57.95;4.60;;;4.00;1.00;;;;;;5093121;28;20242;-68
2021/04/27 01:53:37;;;;;;;57.50;4.20;;;3.90;1.00;;;;;;5092714;28;20651;-68
2021/04/27 01:56:04;;;;;;;61.95;4.28;;;3.90;1.00;;;;;;5093433;28;20318;-68
2021/04/27 01:58:30;;;;;;;58.65;4.95;;;3.90;1.00;;;;;;5093126;28;20299;-68
2021/04/27 02:00:59;;;;;;;59.63;4.90;;;3.80;1.00;;;;;;5093436;28;20319;-68
2021/04/27 02:03:25;;;;;;;61.67;5.28;;;3.80;1.00;;;;;;5092864;28;20311;-68
2021/04/27 02:05:52;;;;;;;63.78;5.63;;;3.80;1.00;;;;;;5092902;28;20462;-68
2021/04/27 02:08:18;;;;;;;58.47;4.65;;;3.80;1.00;;;;;;5092738;28;20204;-67
2021/04/27 02:10:45;;;;;;;58.78;5.13;;;3.70;1.00;;;;;;5093169;28;20258;-68
2021/04/27 02:13:14;;;;;;;65.72;5.57;;;3.70;1.00;;;;;;5092530;28;20239;-68
2021/04/27 02:15:41;;;;;;;61.70;5.57;;;3.60;1.00;;;;;;5092788;28;20224;-68
2021/04/27 02:18:15;;;;;;;59.97;5.15;;;3.60;1.00;;;;;;5093056;28;20273;-68
2021/04/27 02:20:43;;;;;;;60.45;6.00;;;3.50;1.00;;;;;;5080508;28;20603;-68
2021/04/27 02:23:11;;;;;;;59.55;5.93;;;3.60;1.00;;;;;;5072211;28;20209;-68
2021/04/27 02:25:39;;;;;;;61.53;5.90;;;3.50;1.00;;;;;;5072011;28;20233;-68
2021/04/27 02:28:05;;;;;;;59.85;5.70;;;3.50;1.00;;;;;;5072661;28;20291;-68
2021/04/27 02:30:32;;;;;;;61.05;6.20;;;3.40;1.00;;;;;;5072373;28;20337;-68
2021/04/27 02:32:59;;;;;;;59.35;5.53;;;3.40;1.00;;;;;;5072066;28;20267;-68
2021/04/27 02:35:26;;;;;;;58.08;5.35;;;3.40;1.00;;;;;;5071860;28;20233;-67
2021/04/27 02:37:53;;;;;;;63.55;6.30;;;3.40;1.00;;;;;;5072148;28;20205;-67
2021/04/27 02:40:25;;;;;;;59.80;5.82;;;3.40;1.00;;;;;;5072542;28;20612;-68
2021/04/27 02:42:53;;;;;;;59.67;5.78;;;3.40;1.00;;;;;;5072963;28;20201;-68
2021/04/27 02:45:21;;;;;;;62.75;5.85;;;3.40;1.00;;;;;;5072033;28;20648;-67
2021/04/27 02:47:48;;;;;;;61.80;5.60;;;3.40;1.00;;;;;;5071956;28;20205;-68
2021/04/27 02:50:16;;;;;;;60.00;5.85;;;3.30;1.00;;;;;;5071971;28;20573;-68
2021/04/27 02:52:43;;;;;;;61.65;6.15;;;3.40;1.00;;;;;;5083889;28;20219;-67
2021/04/27 02:55:13;;;;;;;61.75;5.80;;;3.30;1.00;;;;;;5073534;28;20319;-67
2021/04/27 02:57:39;;;;;;;64.15;5.40;;;3.30;1.00;;;;;;5071975;28;20496;-67
2021/04/27 03:00:07;;;;;;;58.63;5.20;;;3.30;1.00;;;;;;5071866;28;20717;-67
2021/04/27 03:02:34;;;;;;;59.22;5.35;;;3.20;1.00;;;;;;5071340;28;20209;-68
2021/04/27 03:05:02;;;;;;;58.55;5.40;;;3.20;1.00;;;;;;5071575;28;20211;-67
2021/04/27 03:07:28;;;;;;;59.90;5.35;;;3.20;1.00;;;;;;5071876;28;20209;-67
2021/04/27 03:09:55;;;;;;;61.30;6.00;;;3.20;1.00;;;;;;5071638;28;20257;-67
2021/04/27 03:12:22;;;;;;;64.30;5.53;;;3.20;1.00;;;;;;5071321;28;20299;-67
2021/04/27 03:14:48;;;;;;;58.60;5.28;;;3.20;1.00;;;;;;5071256;28;20273;-67
2021/04/27 03:17:14;;;;;;;60.58;5.63;;;3.20;1.00;;;;;;5071495;28;20240;-67
2021/04/27 03:19:41;;;;;;;61.53;5.50;;;3.20;1.00;;;;;;5071680;28;20307;-67
2021/04/27 03:22:07;;;;;;;59.63;5.70;;;3.20;1.00;;;;;;5069919;28;20291;-67
2021/04/27 03:24:33;;;;;;;59.40;5.75;;;3.10;1.00;;;;;;5076399;28;20196;-67
2021/04/27 03:27:00;;;;;;;67.13;6.25;;;3.10;1.00;;;;;;5091711;28;20303;-67
2021/04/27 03:29:27;;;;;;;59.47;5.28;;;3.10;1.00;;;;;;5091286;28;20226;-68
2021/04/27 03:31:54;;;;;;;59.58;6.00;;;3.10;1.00;;;;;;5091588;28;20691;-67
2021/04/27 03:34:20;;;;;;;59.30;5.93;;;3.10;1.00;;;;;;5091602;28;20640;-67
2021/04/27 03:36:46;;;;;;;59.17;5.82;;;3.10;1.00;;;;;;5091610;28;20622;-67
2021/04/27 03:39:13;;;;;;;63.67;6.07;;;3.10;1.00;;;;;;5091349;28;20743;-67
2021/04/27 03:41:39;;;;;;;61.25;5.57;;;3.10;1.00;;;;;;5091553;28;20687;-67
2021/04/27 03:44:07;;;;;;;61.65;6.50;;;3.10;1.00;;;;;;5090942;28;20299;-68
2021/04/27 03:46:33;;;;;;;62.17;6.75;;;3.00;1.00;;;;;;5091629;28;20663;-67
2021/04/27 03:48:59;;;;;;;63.35;6.10;;;3.00;1.00;;;;;;5091549;28;20295;-67
2021/04/27 03:51:26;;;;;;;65.75;6.07;;;3.00;1.00;;;;;;5091332;28;20226;-68
2021/04/27 03:53:52;;;;;;;60.78;5.47;;;3.00;1.00;;;;;;5088527;28;20210;-68
2021/04/27 03:56:18;;;;;;;61.00;5.50;;;3.00;1.00;;;;;;5081923;28;20313;-67
2021/04/27 03:58:45;;;;;;;59.08;5.80;;;3.00;1.00;;;;;;5071062;28;20296;-67
2021/04/27 04:01:12;;;;;;;59.45;5.55;;;3.00;1.00;;;;;;5071165;28;20259;-67
2021/04/27 04:03:39;;;;;;;60.45;5.50;;;3.00;1.00;;;;;;5071171;28;20236;-67
2021/04/27 04:06:06;;;;;;;59.30;5.22;;;3.00;1.00;;;;;;5075259;28;20337;-68
2021/04/27 04:08:32;;;;;;;60.47;6.15;;;3.00;1.00;;;;;;5075373;28;20205;-68
2021/04/27 04:10:58;;;;;;;59.65;5.57;;;2.90;1.00;;;;;;5075256;28;20762;-67
2021/04/27 04:13:25;;;;;;;61.03;5.40;;;2.90;1.00;;;;;;5074803;28;20569;-67
2021/04/27 04:15:51;;;;;;;59.55;6.03;;;2.90;1.00;;;;;;5074632;28;20238;-67
2021/04/27 04:18:21;;;;;;;61.13;6.00;;;2.90;1.00;;;;;;5075183;28;20296;-67
2021/04/27 04:20:48;;;;;;;60.58;6.25;;;2.80;1.00;;;;;;5074816;28;20231;-67
2021/04/27 04:23:14;;;;;;;62.50;6.38;;;2.80;1.00;;;;;;5074468;28;20215;-67
2021/04/27 04:25:41;;;;;;;59.80;6.25;;;2.80;1.00;;;;;;5084043;28;20227;-67
2021/04/27 04:28:09;;;;;;;60.15;6.07;;;2.80;1.00;;;;;;5080165;28;20211;-68
2021/04/27 04:30:36;;;;;;;61.50;5.63;;;2.80;1.00;;;;;;5074559;28;20285;-68
2021/04/27 04:33:03;;;;;;;61.15;6.60;;;2.80;1.00;;;;;;5074669;28;20679;-67
2021/04/27 04:35:31;;;;;;;66.07;7.07;;;2.80;1.00;;;;;;5074305;28;20225;-67
2021/04/27 04:37:58;;;;;;;63.30;6.03;;;2.80;1.00;;;;;;5074604;28;20295;-67
2021/04/27 04:40:27;;;;;;;65.20;6.68;;;2.90;1.00;;;;;;5074277;28;20289;-67
2021/04/27 04:42:53;;;;;;;60.55;6.40;;;2.80;1.00;;;;;;5074381;28;20212;-67
2021/04/27 04:45:20;;;;;;;62.22;6.10;;;2.80;1.00;;;;;;5073875;28;20204;-67
2021/04/27 04:47:46;;;;;;;63.40;6.97;;;2.90;1.00;;;;;;5074214;28;20319;-67
2021/04/27 04:50:16;;;;;;;61.00;6.47;;;2.90;1.00;;;;;;5074123;28;20312;-67
2021/04/27 04:52:43;;;;;;;61.05;6.55;;;2.90;1.00;;;;;;5073718;28;20248;-67
2021/04/27 04:55:11;;;;;;;61.50;6.80;;;3.00;1.00;;;;;;5073201;28;20316;-67
2021/04/27 04:57:38;;;;;;;62.08;6.28;;;3.00;1.00;;;;;;5089119;28;20331;-67
2021/04/27 05:00:07;;;;;;;62.58;6.25;;;3.00;1.00;;;;;;5094219;28;20219;-67
2021/04/27 05:02:33;;;;;;;65.20;6.45;;;3.10;1.00;;;;;;5094215;28;20291;-67
2021/04/27 05:05:00;;;;;;;62.55;6.40;;;3.10;1.00;;;;;;5094267;28;20210;-68
2021/04/27 05:07:27;;;;;;;64.78;7.13;;;3.20;1.00;;;;;;5095074;28;20295;-68
2021/04/27 05:09:55;;;;;;;62.85;6.40;;;3.30;1.00;;;;;;5094487;28;20224;-67
2021/04/27 05:12:21;;;;;;;64.25;6.75;;;3.30;1.00;;;;;;5094093;28;20231;-67
2021/04/27 05:14:48;;;;;;;65.65;7.20;;;3.40;1.00;;;;;;5093507;28;20232;-67
2021/04/27 05:17:16;;;;;;;63.50;8.30;;;3.40;1.00;;;;;;5094115;28;20668;-67
2021/04/27 05:19:42;;;;;;;66.15;7.47;;;3.50;1.00;;;;;;5094392;28;20237;-67
2021/04/27 05:22:10;;;;;;;63.83;8.18;;;3.60;1.00;;;;;;5093611;28;20304;-67
2021/04/27 05:24:37;;;;;;;70.22;8.55;;;3.70;1.00;;;;;;5094168;28;20204;-67
2021/04/27 05:27:06;;;;;;;61.58;7.07;;;3.80;1.00;;;;;;5090846;28;20290;-67
2021/04/27 05:29:33;;;;;;;67.07;7.00;;;3.90;1.00;;;;;;5093631;28;20316;-67
2021/04/27 05:32:00;;;;;;;60.70;6.53;;;4.00;1.00;;;;;;5093412;28;20700;-67
2021/04/27 05:34:26;;;;;;;62.60;6.72;;;4.10;1.00;;;;;;5093502;28;20204;-68
2021/04/27 05:36:52;;;;;;;60.75;6.30;;;4.20;1.00;;;;;;5093707;28;20643;-68
2021/04/27 05:39:19;;;;;;;62.13;6.80;;;4.20;1.00;;;;;;5093727;28;20208;-68
2021/04/27 05:41:45;;;;;;;63.45;8.93;;;4.30;1.00;;;;;;5093888;28;20204;-68
2021/04/27 05:44:13;;;;;;;66.20;7.40;;;4.40;1.00;;;;;;5093003;28;20215;-68
2021/04/27 05:46:39;;;;;;;60.30;6.60;;;4.50;1.00;;;;;;5093823;28;20212;-67
2021/04/27 05:49:05;;;;;;;60.03;6.53;;;4.60;1.00;;;;;;5093214;28;20233;-67
2021/04/27 05:51:32;;;;;;;62.25;6.90;;;4.70;1.00;;;;;;5093588;28;20223;-68
2021/04/27 05:53:58;;;;;;;64.40;6.18;;;4.80;1.00;;;;;;5093039;28;20322;-68
2021/04/27 05:56:25;;;;;;;62.92;6.30;;;4.90;1.00;;;;;;5093098;28;20320;-67
2021/04/27 05:58:51;;;;;;;60.47;5.93;;;5.00;1.00;;;;;;5092761;28;20212;-68
2021/04/27 06:01:18;;;;;;;59.88;6.28;;;5.10;1.00;;;;;;5093300;28;20252;-68
2021/04/27 06:03:45;;;;;;;61.17;6.00;;;5.20;1.00;;;;;;5084765;28;20219;-68
2021/04/27 06:06:11;;;;;;;60.67;6.30;;;5.30;1.00;;;;;;5080891;28;20224;-68
2021/04/27 06:08:38;;;;;;;62.25;6.53;;;5.30;1.00;;;;;;5093311;28;20671;-67
2021/04/27 06:11:05;;;;;;;59.25;5.90;;;5.40;1.00;;;;;;5093053;28;20319;-67
2021/04/27 06:13:32;;;;;;;61.85;7.00;;;5.60;1.00;;;;;;5092557;28;20208;-67
2021/04/27 06:15:59;;;;;;;61.85;6.50;;;5.70;1.00;;;;;;5092759;28;20311;-67
2021/04/27 06:18:26;;;;;;;61.35;6.43;;;5.70;1.00;;;;;;5092914;28;20234;-67
2021/04/27 06:20:53;;;;;;;60.42;5.70;;;5.90;1.00;;;;;;5092888;28;20314;-67
2021/04/27 06:23:19;;;;;;;67.20;6.45;;;5.90;1.00;;;;;;5093007;28;20295;-67
2021/04/27 06:25:45;;;;;;;61.80;5.60;;;6.00;1.00;;;;;;5092242;28;20229;-68
2021/04/27 06:28:13;;;;;;;60.08;5.57;;;6.10;1.00;;;;;;5092604;28;20295;-67
2021/04/27 06:30:40;;;;;;;60.92;5.90;;;6.20;1.00;;;;;;5092644;28;20320;-68
2021/04/27 06:33:06;;;;;;;62.67;6.22;;;6.30;1.00;;;;;;5092572;28;20294;-67
2021/04/27 06:35:33;;;;;;;63.75;5.57;;;6.40;1.00;;;;;;5092691;28;20221;-67
2021/04/27 06:38:00;;;;;;;61.00;5.40;;;6.50;1.00;;;;;;5092891;28;20681;-67
2021/04/27 06:40:27;;;;;;;61.72;5.93;;;6.50;1.00;;;;;;5092389;28;20244;-68
2021/04/27 06:42:53;;;;;;;60.50;5.60;;;6.60;1.00;;;;;;5092201;28;20205;-67
2021/04/27 06:45:20;;;;;;;60.83;5.78;;;6.70;1.00;;;;;;5092076;28;20233;-68
2021/04/27 06:47:46;;;;;;;60.10;6.30;;;6.80;1.00;;;;;;5092425;28;20730;-67
2021/04/27 06:50:14;;;;;;;60.15;5.63;;;6.90;1.00;;;;;;5092577;28;20248;-67
2021/04/27 06:52:41;;;;;;;60.90;6.50;;;7.00;1.00;;;;;;5091908;28;20213;-69
2021/04/27 06:55:09;;;;;;;60.45;5.60;;;7.10;1.00;;;;;;5092278;28;20669;-69
2021/04/27 06:57:35;;;;;;;62.60;6.00;;;7.20;1.00;;;;;;5092344;28;20251;-67
2021/04/27 07:00:02;;;;;;;62.83;6.55;;;7.30;1.00;;;;;;5091990;28;20311;-68
2021/04/27 07:02:29;;;;;;;59.45;5.28;;;7.30;1.00;;;;;;5091997;28;20205;-67
2021/04/27 07:04:55;;;;;;;63.38;6.50;;;7.40;1.00;;;;;;5091896;28;20227;-68
2021/04/27 07:07:21;;;;;;;61.88;6.57;;;7.50;1.00;;;;;;5092215;28;20201;-68
2021/04/27 07:09:49;;;;;;;61.55;6.65;;;7.50;1.00;;;;;;5091970;28;20713;-69
2021/04/27 07:12:15;;;;;;;62.80;5.93;;;7.60;1.00;;;;;;5091773;28;20372;-67
2021/04/27 07:14:41;;;;;;;61.50;6.53;;;7.70;1.00;;;;;;5091780;28;20243;-68
2021/04/27 07:17:08;;;;;;;66.05;6.68;;;7.70;1.00;;;;;;5091810;28;20297;-68
2021/04/27 07:19:34;;;;;;;59.55;6.00;;;7.70;1.00;;;;;;5092138;28;20224;-66
2021/04/27 07:22:01;;;;;;;60.28;6.63;;;7.80;1.00;;;;;;5091735;28;20299;-69
2021/04/27 07:24:27;;;;;;;59.97;6.25;;;7.90;1.00;;;;;;5091732;28;20312;-68
2021/04/27 07:26:55;;;;;;;61.53;6.80;;;7.90;1.00;;;;;;5091754;28;20738;-69
2021/04/27 07:29:21;;;;;;;61.70;6.03;;;8.00;1.00;;;;;;5091964;28;20348;-68
2021/04/27 07:31:48;;;;;;;63.78;6.28;;;8.20;1.00;;;;;;5092149;28;20638;-67
2021/04/27 07:34:14;;;;;;;61.58;6.47;;;8.30;1.00;;;;;;5091748;28;20232;-67
2021/04/27 07:36:41;;;;;;;59.95;6.75;;;8.40;1.00;;;;;;5091603;28;20226;-66
2021/04/27 07:39:09;;;;;;;61.75;6.20;;;8.50;1.00;;;;;;5092013;28;20218;-67
2021/04/27 07:41:36;;;;;;;65.65;6.95;;;8.70;1.00;;;;;;5090695;28;20515;-67
2021/04/27 07:44:04;;;;;;;63.90;6.60;;;8.80;1.00;;;;;;5091386;28;20534;-67
2021/04/27 07:46:30;;;;;;;60.07;6.00;;;8.90;1.00;;;;;;5091743;28;20860;-67
2021/04/27 07:48:57;;;;;;;65.03;6.78;;;9.00;1.00;;;;;;5091774;28;20445;-69
2021/04/27 07:51:23;;;;;;;67.20;7.47;;;9.10;1.00;;;;;;5091631;28;20688;-68
2021/04/27 07:53:49;;;;;;;60.22;6.28;;;9.30;1.00;;;;;;5091020;28;20533;-67
2021/04/27 07:56:16;;;;;;;61.50;6.77;;;9.50;1.00;;;;;;5091352;28;20265;-66
2021/04/27 07:58:42;;;;;;;59.87;6.30;;;9.60;1.00;;;;;;5091694;28;20487;-66
2021/04/27 08:01:10;;;;;;;64.93;7.70;;;9.80;1.00;;;;;;5091492;28;20473;-66
2021/04/27 08:03:36;;;;;;;62.57;6.50;;;9.90;1.00;;;;;;5090860;28;21036;-66
2021/04/27 08:06:03;;;;;;;62.63;7.50;;;10.00;1.00;;;;;;5091570;28;20885;-66
2021/04/27 08:08:29;;;;;;;61.07;6.50;;;10.20;1.00;;;;;;5091329;28;20440;-66
2021/04/27 08:10:55;;;;;;;61.37;6.60;;;10.30;1.00;;;;;;5091481;28;20468;-66
2021/04/27 08:13:22;;;;;;;62.17;6.80;;;10.40;1.00;;;;;;5091146;28;20527;-66
2021/04/27 08:15:48;;;;;;;61.00;6.73;;;10.60;1.00;;;;;;5091048;28;20504;-67
2021/04/27 08:18:16;;;;;;;62.23;7.17;;;10.70;1.00;;;;;;5091364;28;20798;-67
2021/04/27 08:20:42;;;;;;;64.63;7.07;;;10.80;1.00;;;;;;5091093;28;20461;-67
2021/04/27 08:23:08;;;;;;;60.77;6.87;;;11.00;1.00;;;;;;5090796;28;20446;-66
2021/04/27 08:25:35;;;;;;;61.17;6.83;;;11.10;1.00;;;;;;5090877;28;20521;-66
2021/04/27 08:28:02;;;;;;;60.13;7.33;;;11.20;1.00;;;;;;5091414;28;20514;-66
2021/04/27 08:30:29;;;;;;;63.80;7.73;;;11.30;1.00;;;;;;5090994;28;20473;-66
2021/04/27 08:32:57;;;;;;;60.87;6.97;;;11.40;1.00;;;;;;5090856;28;20457;-66
2021/04/27 08:35:24;;;;;;;59.47;6.60;;;11.40;1.00;;;;;;5090782;28;20482;-66
2021/04/27 08:37:51;;;;;;;59.80;7.50;;;11.50;1.00;;;;;;5090926;28;20444;-66
2021/04/27 08:40:18;;;;;;;63.47;7.40;;;11.50;1.00;;;;;;5091063;28;20470;-66
2021/04/27 08:42:47;;;;;;;64.00;7.00;;;11.50;1.00;;;;;;5090922;28;20503;-66
2021/04/27 08:45:14;;;;;;;61.47;6.87;;;11.60;1.00;;;;;;5090818;28;20481;-67
2021/04/27 08:47:41;;;;;;;64.37;7.60;;;11.70;1.00;;;;;;5091082;28;20525;-67
2021/04/27 08:50:11;;;;;;;73.80;7.90;;;11.80;1.00;;;;;;5091978;28;20506;-67
2021/04/27 08:52:38;;;;;;;63.63;6.70;;;11.90;1.00;;;;;;5094330;28;20458;-67
2021/04/27 08:55:06;;;;;;;61.70;7.70;;;12.10;1.00;;;;;;5094345;28;20625;-67
2021/04/27 08:57:33;;;;;;;63.57;7.60;;;12.30;1.00;;;;;;5094625;28;20473;-67
2021/04/27 09:00:00;;;;;;;62.20;7.13;;;12.50;1.00;;;;;;5094171;28;20478;-67
2021/04/27 09:02:28;;;;;;;64.10;7.30;;;12.60;1.00;;;;;;5093639;28;20532;-67
2021/04/27 09:04:54;;;;;;;62.60;8.70;;;12.70;1.00;;;;;;5094331;28;20545;-67
2021/04/27 09:07:22;;;;;;;67.77;8.00;;;12.80;1.00;;;;;;5094385;28;20539;-67
2021/04/27 09:09:51;;;;;;;64.40;8.43;;;13.10;1.00;;;;;;5094349;28;20517;-67
2021/04/27 09:12:22;;;;;;;60.67;7.20;;;13.30;1.00;;;;;;5094245;28;20546;-67
2021/04/27 09:14:49;;;;;;;65.27;9.23;;;13.40;1.00;;;;;;5094180;28;20540;-67
2021/04/27 09:17:16;;;;;;;64.90;8.00;;;13.60;1.00;;;;;;5094016;28;20490;-66
2021/04/27 09:19:45;;;;;;;61.30;7.80;;;13.80;1.00;;;;;;5094081;28;20488;-66
2021/04/27 09:22:16;;;;;;;61.13;8.50;;;14.00;1.00;;;;;;5093841;28;20537;-67
2021/04/27 09:24:46;;;;;;;62.07;7.70;;;14.20;1.00;;;;;;5093971;28;20474;-66
2021/04/27 09:27:22;;;;;;;62.37;8.30;;;14.40;1.00;;;;;;5094078;28;20870;-67
2021/04/27 09:29:49;;;;;;;62.97;8.07;;;14.50;1.00;;;;;;5093709;28;20470;-67
2021/04/27 09:32:30;;;;;;;63.90;8.53;;;14.80;1.00;;;;;;5093577;28;20983;-67
2021/04/27 09:34:56;;;;;;;63.37;8.43;;;15.00;1.00;;;;;;5093771;28;20452;-67
2021/04/27 09:37:23;;;;;;;62.27;7.90;;;15.20;1.00;;;;;;5094166;28;20541;-67
2021/04/27 09:39:52;;;;;;;68.57;8.97;;;15.40;1.00;;;;;;5093591;28;20472;-67
2021/04/27 09:42:20;;;;;;;63.03;8.00;;;15.60;1.00;;;;;;5093351;28;20443;-67
2021/04/27 09:44:50;;;;;;;63.20;8.80;;;15.70;1.00;;;;;;5093572;28;20968;-67
2021/04/27 09:47:22;;;;;;;64.40;8.20;;;16.00;1.00;;;;;;5093787;28;20490;-68
2021/04/27 09:49:57;;;;;;;62.93;7.80;;;16.10;1.00;;;;;;5093756;28;20490;-66
2021/04/27 09:52:24;;;;;;;63.27;8.70;;;16.30;1.00;;;;;;5093312;28;20458;-66
2021/04/27 09:54:59;;;;;;;65.00;8.30;;;16.50;1.00;;;;;;5093341;28;20878;-67
2021/04/27 09:57:27;;;;;;;61.67;8.30;;;16.60;1.00;;;;;;5093609;28;20889;-66
2021/04/27 09:59:54;;;;;;;66.17;7.80;;;16.80;1.00;;;;;;5093428;28;20472;-66
2021/04/27 10:02:21;;;;;;;60.97;7.27;;;17.10;1.00;;;;;;5093052;28;20470;-66
2021/04/27 10:04:49;;;;;;;63.40;8.90;;;17.40;1.00;;;;;;5093237;28;20537;-66
2021/04/27 10:07:17;;;;;;;63.27;8.10;;;17.70;1.00;;;;;;5093093;28;20929;-66
2021/04/27 10:09:46;;;;;;;64.87;9.30;;;18.40;1.00;;;;;;5092993;28;20995;-66
2021/04/27 10:12:13;;;;;;;62.80;9.33;;;19.50;1.00;;;;;;5093008;28;20447;-67
2021/04/27 10:14:40;;;;;;;63.13;8.73;;;20.60;1.00;;;;;;5092878;28;20486;-67
2021/04/27 10:17:13;;;;;;;61.57;8.37;;;21.70;1.00;;;;;;5093258;28;20490;-67
2021/04/27 10:19:39;;;;;;;65.40;9.17;;;22.80;1.00;;;;;;5093019;28;20912;-66
2021/04/27 10:22:06;;;;;;;62.53;8.93;;;23.80;1.00;;;;;;5092620;28;21019;-66
2021/04/27 10:24:33;;;;;;;62.40;9.20;;;24.30;1.00;;;;;;5092908;28;20885;-66
2021/04/27 10:26:59;;;;;;;60.60;8.43;;;24.70;1.00;;;;;;5092729;28;20530;-66
2021/04/27 10:29:27;;;;;;;64.73;9.00;;;25.20;1.00;;;;;;5092893;28;20508;-67
2021/04/27 10:32:16;;;;;;;61.90;8.90;;;25.80;1.00;;;;;;5085672;28;20570;-68
2021/04/27 10:35:06;;;;;;;64.73;9.20;;;26.20;1.00;;;;;;5071579;28;20447;-68
2021/04/27 10:38:02;;;;;;;62.40;8.90;;;26.50;1.00;;;;;;5078295;28;20459;-68
2021/04/27 10:40:50;;;;;;;63.37;9.23;;;26.60;1.00;;;;;;5092614;28;20548;-68
2021/04/27 10:43:33;;;;;;;61.80;8.77;;;27.00;1.00;;;;;;5092494;28;20454;-68
2021/04/27 10:46:02;;;;;;;61.87;9.00;;;27.70;1.00;;;;;;5092254;28;20529;-68
2021/04/27 10:48:31;;;;;;;62.70;8.77;;;28.30;1.00;;;;;;5092287;28;21049;-68
2021/04/27 10:51:18;;;;;;;61.57;8.57;;;28.90;1.00;;;;;;5091784;28;20509;-68
2021/04/27 10:54:03;;;;;;;63.60;8.13;;;29.50;1.00;;;;;;5091630;28;20577;-68
2021/04/27 10:56:34;;;;;;;60.67;8.20;;;30.00;1.00;;;;;;5092187;28;20488;-67
2021/04/27 10:59:05;;;;;;;65.50;9.30;;;29.90;1.00;;;;;;5092289;28;20478;-68
2021/04/27 11:01:31;;;;;;;63.77;8.73;;;29.70;1.00;;;;;;5092419;28;20985;-68
2021/04/27 11:03:59;;;;;;;63.53;9.70;;;30.00;1.00;;;;;;5091872;28;20453;-67
2021/04/27 11:06:25;;;;;;;60.97;7.80;;;30.00;1.00;;;;;;5092149;28;20438;-67
2021/04/27 11:08:55;;;;;;;66.40;8.37;;;30.10;1.00;;;;;;5077247;28;20975;-68
2021/04/27 11:11:25;;;;;;;63.20;8.97;;;30.00;1.00;;;;;;5086848;28;20471;-69
2021/04/27 11:13:53;;;;;;;62.00;7.87;;;30.20;1.00;;;;;;5090946;28;20499;-69
2021/04/27 11:16:25;;;;;;;61.70;9.23;;;30.70;1.00;;;;;;5091830;28;20494;-69
2021/04/27 11:18:51;;;;;;;61.47;8.70;;;31.00;1.00;;;;;;5091836;28;20444;-69
2021/04/27 11:21:18;;;;;;;62.77;8.80;;;31.00;1.00;;;;;;5091758;28;20502;-68
2021/04/27 11:23:48;;;;;;;61.67;8.43;;;31.40;1.00;;;;;;5091324;28;20445;-66
2021/04/27 11:26:44;;;;;;;61.53;8.97;;;31.90;1.00;;;;;;5091724;28;20452;-67
2021/04/27 11:29:16;;;;;;;63.37;9.33;;;32.00;1.00;;;;;;5091815;28;20506;-67
2021/04/27 11:32:02;;;;;;;61.67;8.40;;;32.20;1.00;;;;;;5091713;28;20540;-67
2021/04/27 11:34:29;;;;;;;60.97;8.10;;;32.70;1.00;;;;;;5091541;28;20538;-67
2021/04/27 11:36:58;;;;;;;60.43;7.70;;;33.20;1.00;;;;;;5091384;28;20474;-67
2021/04/27 11:39:26;;;;;;;62.93;8.33;;;33.90;1.00;;;;;;5089408;28;20496;-68
2021/04/27 11:41:55;;;;;;;59.70;7.70;;;34.50;1.00;;;;;;5091198;28;20812;-67
2021/04/27 11:44:23;;;;;;;60.67;7.63;;;34.50;1.00;;;;;;5091413;28;20488;-68
2021/04/27 11:46:55;;;;;;;60.00;8.77;;;34.50;1.00;;;;;;5091369;28;20481;-68
2021/04/27 11:49:21;;;;;;;62.20;8.13;;;34.90;1.00;;;;;;5091206;28;20457;-67
2021/04/27 11:51:48;;;;;;;60.40;8.37;;;35.20;1.00;;;;;;5091220;28;20505;-68
2021/04/27 11:54:19;;;;;;;61.70;8.50;;;35.30;1.00;;;;;;5091235;28;20935;-68
2021/04/27 11:56:47;;;;;;;61.20;8.53;;;35.30;1.00;;;;;;5091299;28;20449;-68
2021/04/27 11:59:19;;;;;;;65.90;8.80;;;35.60;1.00;;;;;;5090734;28;20464;-68
2021/04/27 12:01:45;;;;;;;62.80;8.90;;;35.90;1.00;;;;;;5091259;28;20485;-68
2021/04/27 12:04:11;;;;;;;62.13;9.03;;;35.80;1.00;;;;;;5090716;28;20451;-68
2021/04/27 12:06:38;;;;;;;61.10;8.83;;;35.60;1.00;;;;;;5091369;28;20569;-68
2021/04/27 12:09:06;;;;;;;60.77;7.93;;;35.20;1.00;;;;;;5091136;28;20962;-68
2021/04/27 12:11:34;;;;;;;62.50;8.67;;;34.90;1.00;;;;;;5091228;28;20506;-68
2021/04/27 12:14:02;;;;;;;61.87;8.67;;;34.90;1.00;;;;;;5090838;28;20495;-68
2021/04/27 12:16:31;;;;;;;61.37;8.80;;;34.90;1.00;;;;;;5090958;28;20478;-68
2021/04/27 12:19:01;;;;;;;60.37;8.30;;;35.10;1.00;;;;;;5091502;28;20445;-68
2021/04/27 12:21:40;;;;;;;62.47;9.10;;;35.20;1.00;;;;;;5091201;28;20474;-68
2021/04/27 12:24:08;;;;;;;62.70;8.87;;;35.60;1.00;;;;;;5090789;28;20666;-68
2021/04/27 12:26:35;;;;;;;60.30;8.83;;;36.00;1.00;;;;;;5094655;28;20497;-68
2021/04/27 12:29:03;;;;;;;61.77;8.47;;;36.20;1.00;;;;;;5094758;28;20533;-68
2021/04/27 12:31:31;;;;;;;60.60;8.20;;;36.60;1.00;;;;;;5095185;28;20442;-68
2021/04/27 12:33:59;;;;;;;60.37;8.10;;;36.90;1.00;;;;;;5094703;28;20446;-68
2021/04/27 12:36:36;;;;;;;60.70;8.30;;;37.10;1.00;;;;;;5095007;28;20442;-68
2021/04/27 12:39:08;;;;;;;61.30;7.77;;;37.40;1.00;;;;;;5094597;28;20537;-68
2021/04/27 12:41:40;;;;;;;63.50;8.80;;;37.40;1.00;;;;;;5094635;28;20533;-68
2021/04/27 12:44:29;;;;;;;60.13;7.97;;;37.00;1.00;;;;;;5094327;28;20442;-68
2021/04/27 12:46:58;;;;;;;65.03;8.30;;;36.50;1.00;;;;;;5095020;28;20474;-68
2021/04/27 12:49:26;;;;;;;59.30;7.27;;;36.50;1.00;;;;;;5094649;28;20990;-68
2021/04/27 12:52:04;;;;;;;65.17;8.10;;;36.80;1.00;;;;;;5093987;28;20558;-67
2021/04/27 12:54:31;;;;;;;62.67;8.30;;;36.50;1.00;;;;;;5094719;28;20442;-68
2021/04/27 12:57:18;;;;;;;62.10;7.87;;;36.30;1.00;;;;;;5094778;28;20532;-67